Time;durP1;ratioP1;P1;durP2;ratioP2;P2;SDS_P1;SDS_P2;PMS_P1;PMS_P2;Temp;Humidity;BMP_temperature;BMP_pressure;BME280_temperature;BME280_humidity;BME280_pressure;Samples;Min_cycle;Max_cycle;Signal;HPM_P1;HPM_P2
2023/11/02 13:52:14;;;;;;;1.30;0.50;;;;;;;15.94;56.57;94723.30;104452;1302;557857;-89
2023/11/02 13:54:42;;;;;;;0.90;0.30;;;;;;;15.95;56.17;94709.37;106306;1293;103557;-90
2023/11/02 13:57:08;;;;;;;4.00;1.60;;;;;;;15.91;56.07;94703.69;106094;1293;137259;-90
2023/11/02 13:59:35;;;;;;;3.40;1.30;;;;;;;15.89;56.79;94703.62;106514;1286;22552;-89
2023/11/02 14:02:02;;;;;;;3.40;1.30;;;;;;;15.84;56.43;94701.15;106171;1286;138707;-90
2023/11/02 14:04:28;;;;;;;3.20;1.30;;;;;;;15.79;56.85;94690.08;106272;1290;22767;-89
2023/11/02 14:06:56;;;;;;;10.30;3.50;;;;;;;15.74;57.23;94685.89;106188;1286;22662;-90
2023/11/02 14:09:24;;;;;;;2.90;1.20;;;;;;;15.69;56.96;94686.36;106097;1288;136921;-88
2023/11/02 14:11:50;;;;;;;5.30;2.50;;;;;;;15.65;57.26;94683.61;106298;1287;22625;-89
2023/11/02 14:14:17;;;;;;;9.40;4.70;;;;;;;15.59;57.20;94680.26;106346;1289;136798;-89
2023/11/02 14:16:44;;;;;;;9.00;3.50;;;;;;;15.54;57.44;94674.58;106175;1289;22687;-89
2023/11/02 14:19:11;;;;;;;4.20;1.90;;;;;;;15.47;57.41;94675.11;106341;1286;22629;-88
2023/11/02 14:21:38;;;;;;;4.00;1.90;;;;;;;15.41;56.71;94678.26;106218;1286;137003;-88
2023/11/02 14:24:06;;;;;;;3.80;1.50;;;;;;;15.36;57.34;94670.18;106488;1285;22674;-89
2023/11/02 14:26:33;;;;;;;5.80;2.50;;;;;;;15.31;56.63;94678.05;106282;1287;137684;-88
2023/11/02 14:29:02;;;;;;;7.00;2.20;;;;;;;15.27;57.02;94673.71;106410;1283;22552;-89
2023/11/02 14:31:29;;;;;;;6.40;3.10;;;;;;;15.22;56.61;94660.88;106300;1287;22565;-89
2023/11/02 14:33:56;;;;;;;5.30;2.10;;;;;;;15.19;57.62;94663.21;106138;1286;137309;-90
2023/11/02 14:36:23;;;;;;;4.50;2.70;;;;;;;15.14;58.49;94649.31;106805;1283;22666;-90
2023/11/02 14:38:51;;;;;;;5.70;2.80;;;;;;;15.05;57.12;94653.75;106761;1282;137117;-90
2023/11/02 14:41:17;;;;;;;1.60;0.90;;;;;;;14.99;57.47;94646.23;106941;1278;22560;-89
2023/11/02 14:43:44;;;;;;;2.10;0.70;;;;;;;14.93;57.98;94638.59;107012;1278;26667;-90
2023/11/02 14:46:12;;;;;;;2.40;1.10;;;;;;;14.84;57.50;94647.85;106931;1277;136767;-88
2023/11/02 14:48:38;;;;;;;6.20;2.40;;;;;;;14.80;57.64;94646.81;106889;1280;23235;-90
2023/11/02 14:51:06;;;;;;;2.90;1.40;;;;;;;14.76;58.17;94649.98;106892;1278;137046;-89
2023/11/02 14:53:34;;;;;;;24.90;9.90;;;;;;;14.73;57.76;94636.61;106898;1283;22595;-88
2023/11/02 14:56:01;;;;;;;8.90;3.70;;;;;;;14.65;58.14;94641.80;106931;1277;137196;-90
2023/11/02 14:58:27;;;;;;;2.90;1.50;;;;;;;14.60;59.39;94624.74;106979;1278;22684;-89
2023/11/02 15:00:54;;;;;;;5.20;2.00;;;;;;;14.54;59.25;94630.66;107196;1278;25558;-89
2023/11/02 15:03:21;;;;;;;2.10;0.90;;;;;;;14.48;58.79;94639.85;107333;1270;137712;-90
2023/11/02 15:05:49;;;;;;;2.30;0.70;;;;;;;14.44;59.91;94621.77;107402;1263;22556;-88
2023/11/02 15:08:17;;;;;;;3.70;1.30;;;;;;;14.40;59.29;94625.34;106931;1278;136746;-89
2023/11/02 15:10:43;;;;;;;5.60;1.80;;;;;;;14.38;58.74;94611.89;106992;1280;24668;-90
2023/11/02 15:13:10;;;;;;;14.70;5.70;;;;;;;14.36;59.07;94601.70;107040;1280;24163;-89
2023/11/02 15:15:37;;;;;;;3.30;1.30;;;;;;;14.34;59.54;94617.56;107004;1277;138433;-90
2023/11/02 15:18:03;;;;;;;3.10;1.00;;;;;;;14.31;58.98;94599.23;107050;1285;24292;-90
2023/11/02 15:20:36;;;;;;;20.30;9.00;;;;;;;14.31;58.91;94593.80;107021;1278;137141;-90
2023/11/02 15:23:02;;;;;;;8.00;3.00;;;;;;;14.27;59.66;94588.54;107320;1278;23402;-90
2023/11/02 15:25:29;;;;;;;11.40;6.00;;;;;;;14.19;59.83;94581.52;107290;1278;137157;-89
2023/11/02 15:27:55;;;;;;;5.50;2.30;;;;;;;14.12;59.95;94580.88;107235;1278;22783;-89
2023/11/02 15:30:22;;;;;;;3.60;1.80;;;;;;;14.10;59.74;94578.40;107112;1278;23847;-90
2023/11/02 15:32:49;;;;;;;4.20;2.50;;;;;;;14.11;59.99;94576.79;107015;1274;137308;-91
2023/11/02 15:35:16;;;;;;;11.10;4.70;;;;;;;14.08;60.82;94599.48;107176;1285;22668;-90
2023/11/02 15:37:43;;;;;;;4.50;2.70;;;;;;;14.04;60.99;94603.48;107101;1277;137560;-89
2023/11/02 15:40:11;;;;;;;5.10;2.40;;;;;;;13.97;60.90;94602.87;106997;1278;24223;-89
2023/11/02 15:42:38;;;;;;;10.20;4.70;;;;;;;13.93;61.10;94601.46;107023;1262;22604;-89
2023/11/02 15:45:07;;;;;;;2.90;1.20;;;;;;;13.90;61.10;94611.84;106991;1278;137354;-91
2023/11/02 15:47:35;;;;;;;3.90;1.30;;;;;;;13.90;61.40;94611.52;107214;1277;22554;-92
2023/11/02 15:50:07;;;;;;;4.70;2.10;;;;;;;13.89;61.43;94610.21;107386;1278;137986;-91
2023/11/02 15:52:41;;;;;;;4.00;1.80;;;;;;;13.87;61.74;94610.77;107379;1278;22547;-89
2023/11/02 15:55:09;;;;;;;3.00;1.20;;;;;;;13.84;61.62;94607.40;107260;1277;27511;-91
2023/11/02 15:57:36;;;;;;;2.70;1.00;;;;;;;13.83;61.55;94609.52;107214;1278;137047;-90
2023/11/02 16:00:03;;;;;;;2.70;1.10;;;;;;;13.84;61.64;94605.88;107243;1279;25365;-91
2023/11/02 16:02:30;;;;;;;2.10;0.80;;;;;;;13.85;61.89;94608.23;107358;1276;137828;-91
2023/11/02 16:04:56;;;;;;;2.70;1.00;;;;;;;13.86;61.74;94593.27;107133;1278;24215;-91
2023/11/02 16:07:23;;;;;;;3.30;1.10;;;;;;;13.86;61.96;94599.69;107175;1283;136930;-91
2023/11/02 16:09:49;;;;;;;1.80;1.10;;;;;;;13.85;61.93;94587.77;107394;1280;25887;-91
2023/11/02 16:12:16;;;;;;;1.70;0.90;;;;;;;13.84;61.94;94588.92;107040;1279;23241;-90
2023/11/02 16:14:43;;;;;;;1.70;1.00;;;;;;;13.85;62.09;94595.09;107237;1273;138291;-90
2023/11/02 16:17:09;;;;;;;2.90;0.90;;;;;;;13.86;62.06;94576.50;107164;1280;25460;-91
2023/11/02 16:19:36;;;;;;;2.80;1.30;;;;;;;13.87;62.19;94583.55;107102;1278;136997;-90
2023/11/02 16:22:03;;;;;;;1.70;0.60;;;;;;;13.86;62.42;94576.56;107345;1278;23128;-90
2023/11/02 16:24:29;;;;;;;2.80;1.10;;;;;;;13.85;62.28;94575.77;107208;1277;22595;-88
2023/11/02 16:26:56;;;;;;;3.50;1.30;;;;;;;13.84;62.34;94572.16;107279;1276;138177;-88
2023/11/02 16:29:22;;;;;;;2.50;1.20;;;;;;;13.84;62.53;94571.42;107322;1276;22589;-90
2023/11/02 16:31:49;;;;;;;2.10;1.00;;;;;;;13.82;62.44;94567.68;107177;1270;138042;-91
2023/11/02 16:34:17;;;;;;;10.90;3.90;;;;;;;13.80;62.44;94557.17;107520;1275;22764;-91
2023/11/02 16:36:49;;;;;;;5.70;1.90;;;;;;;13.79;62.60;94562.90;107421;1271;23132;-91
2023/11/02 16:39:16;;;;;;;;;;;;;;;13.79;62.55;94558.98;107286;1273;137020;-91
2023/11/02 16:41:52;;;;;;;3.10;1.20;;;;;;;13.77;62.68;94566.38;107459;1277;24527;-90
2023/11/02 16:44:20;;;;;;;6.90;2.90;;;;;;;13.77;62.81;94565.38;107185;1279;137246;-88
2023/11/02 16:46:48;;;;;;;5.40;2.10;;;;;;;13.76;62.90;94555.72;107358;1278;25272;-91
2023/11/02 16:49:17;;;;;;;5.80;2.20;;;;;;;13.76;62.85;94555.92;107425;1278;22598;-89
2023/11/02 16:51:46;;;;;;;24.00;8.80;;;;;;;13.77;62.93;94552.29;107113;1277;136845;-90
2023/11/02 16:54:12;;;;;;;7.00;2.90;;;;;;;13.77;63.26;94550.36;107252;1275;24171;-91
2023/11/02 16:56:40;;;;;;;2.30;1.20;;;;;;;13.77;62.60;94543.67;107432;1276;137697;-91
2023/11/02 16:59:10;;;;;;;8.90;3.20;;;;;;;13.83;62.42;94537.01;107355;1277;25522;-89
2023/11/02 17:01:37;;;;;;;5.80;1.90;;;;;;;13.89;62.80;94530.42;107198;1282;136996;-90
2023/11/02 17:04:04;;;;;;;3.60;1.60;;;;;;;13.89;62.91;94536.73;107411;1277;22577;-90
2023/11/02 17:06:31;;;;;;;25.70;8.90;;;;;;;13.90;63.49;94544.89;107382;1277;24342;-90
2023/11/02 17:08:57;;;;;;;5.80;2.60;;;;;;;13.87;63.63;94552.34;107350;1274;137164;-89
2023/11/02 17:11:26;;;;;;;5.00;1.30;;;;;;;13.87;62.87;94536.78;107236;1277;25170;-90
2023/11/02 17:13:53;;;;;;;2.00;1.10;;;;;;;13.92;62.97;94534.30;107211;1276;137477;-90
2023/11/02 17:16:19;;;;;;;2.70;0.90;;;;;;;13.96;62.92;94519.10;107140;1276;24235;-89
2023/11/02 17:18:46;;;;;;;4.00;1.70;;;;;;;13.98;63.21;94516.65;107291;1277;23911;-89
2023/11/02 17:21:15;;;;;;;2.30;0.90;;;;;;;13.99;63.35;94518.64;107172;1273;137413;-90
2023/11/02 17:23:41;;;;;;;4.00;1.60;;;;;;;14.01;63.17;94508.29;107240;1276;22588;-89
2023/11/02 17:26:11;;;;;;;2.00;1.20;;;;;;;14.02;63.24;94509.87;107032;1276;137028;-89
2023/11/02 17:28:39;;;;;;;9.50;5.30;;;;;;;14.03;62.94;94491.49;107296;1274;22960;-89
2023/11/02 17:31:08;;;;;;;5.40;2.40;;;;;;;14.06;63.04;94482.36;107765;1276;22853;-89
2023/11/02 17:33:38;;;;;;;6.60;4.00;;;;;;;14.08;63.16;94486.62;107428;1276;137935;-89
2023/11/02 17:36:06;;;;;;;3.00;1.60;;;;;;;14.10;63.25;94481.88;107076;1275;23741;-88
2023/11/02 17:38:34;;;;;;;6.80;3.80;;;;;;;14.10;63.28;94485.48;106975;1277;137608;-89
2023/11/02 17:41:01;;;;;;;6.90;3.60;;;;;;;14.12;63.25;94470.08;107052;1275;22739;-89
2023/11/02 17:43:27;;;;;;;4.70;2.10;;;;;;;14.12;63.33;94461.98;107246;1278;137266;-89
2023/11/02 17:45:54;;;;;;;3.60;1.80;;;;;;;14.13;63.23;94459.43;107488;1281;25484;-89
2023/11/02 17:48:20;;;;;;;3.10;1.30;;;;;;;14.13;63.16;94448.26;107501;1277;22582;-90
2023/11/02 17:50:50;;;;;;;5.60;1.90;;;;;;;14.12;63.29;94441.93;107574;1276;137866;-89
2023/11/02 17:53:17;;;;;;;3.90;1.20;;;;;;;14.11;63.31;94446.79;107615;1276;22562;-90
2023/11/02 17:55:45;;;;;;;4.30;1.60;;;;;;;14.12;63.33;94449.39;109658;1275;138245;-89
2023/11/02 17:58:11;;;;;;;4.00;1.80;;;;;;;14.13;63.50;94446.02;109562;1277;22558;-88
2023/11/02 18:00:40;;;;;;;3.20;1.00;;;;;;;14.14;63.54;94442.93;107375;1276;25816;-89
2023/11/02 18:03:07;;;;;;;8.90;4.70;;;;;;;14.16;63.66;94446.83;107299;1279;137244;-89
2023/11/02 18:05:34;;;;;;;6.80;3.80;;;;;;;14.16;63.76;94428.81;107330;1275;22556;-88
2023/11/02 18:08:01;;;;;;;4.40;2.40;;;;;;;14.17;63.80;94443.86;107123;1275;138810;-89
2023/11/02 18:10:28;;;;;;;17.10;10.80;;;;;;;14.16;63.72;94431.07;107392;1278;23141;-88
2023/11/02 18:12:55;;;;;;;7.80;4.60;;;;;;;14.15;64.24;94416.95;107781;1279;23289;-89
2023/11/02 18:15:21;;;;;;;4.50;2.80;;;;;;;14.15;64.51;94428.52;107233;1275;137194;-90
2023/11/02 18:17:48;;;;;;;10.40;4.50;;;;;;;14.13;64.68;94428.30;107749;1276;22573;-89
2023/11/02 18:20:15;;;;;;;11.80;6.00;;;;;;;14.10;64.76;94424.89;107454;1276;137326;-89
2023/11/02 18:22:42;;;;;;;39.90;21.20;;;;;;;14.09;64.84;94431.41;107418;1276;22550;-89
2023/11/02 18:25:09;;;;;;;14.70;7.00;;;;;;;14.10;64.87;94433.93;107173;1277;22554;-89
2023/11/02 18:27:36;;;;;;;3.20;2.00;;;;;;;14.12;64.87;94433.63;106966;1277;137328;-88
2023/11/02 18:30:03;;;;;;;7.60;3.70;;;;;;;14.14;65.11;94434.05;107090;1280;22669;-88
2023/11/02 18:32:30;;;;;;;4.90;2.20;;;;;;;14.12;65.43;94427.10;106966;1275;137600;-88
2023/11/02 18:34:57;;;;;;;4.50;2.50;;;;;;;14.11;65.61;94421.30;107018;1275;22538;-89
2023/11/02 18:37:23;;;;;;;4.60;1.70;;;;;;;14.10;65.69;94436.80;106909;1275;137370;-89
2023/11/02 18:39:50;;;;;;;12.90;6.40;;;;;;;14.10;65.35;94433.56;107591;1275;22549;-88
2023/11/02 18:42:16;;;;;;;4.60;2.60;;;;;;;14.12;65.53;94436.92;107511;1275;22537;-89
2023/11/02 18:44:43;;;;;;;3.40;1.30;;;;;;;14.11;65.78;94447.30;107483;1275;138037;-88
2023/11/02 18:47:09;;;;;;;6.20;3.30;;;;;;;14.10;65.66;94457.27;107383;1274;25000;-88
2023/11/02 18:49:38;;;;;;;2.80;1.40;;;;;;;14.11;65.92;94453.67;107019;1283;137944;-90
2023/11/02 18:52:07;;;;;;;10.30;4.40;;;;;;;14.10;66.02;94455.34;107203;1275;22778;-89
2023/11/02 18:54:35;;;;;;;4.40;2.00;;;;;;;14.10;66.11;94452.16;107477;1274;25254;-88
2023/11/02 18:57:02;;;;;;;6.30;4.00;;;;;;;14.10;66.09;94449.97;107615;1276;137271;-88
2023/11/02 18:59:28;;;;;;;16.90;9.30;;;;;;;14.10;66.23;94448.08;107275;1275;22604;-88
2023/11/02 19:01:55;;;;;;;14.20;7.10;;;;;;;14.10;66.31;94450.44;107053;1277;137947;-88
2023/11/02 19:04:23;;;;;;;4.00;1.90;;;;;;;14.10;66.39;94440.92;107133;1275;22592;-88
2023/11/02 19:06:50;;;;;;;5.20;2.90;;;;;;;14.10;66.73;94445.89;107071;1277;22624;-88
2023/11/02 19:09:16;;;;;;;3.50;1.90;;;;;;;14.10;66.76;94442.64;107162;1276;137207;-88
2023/11/02 19:11:43;;;;;;;3.60;2.10;;;;;;;14.10;66.80;94441.96;107038;1277;22724;-89
2023/11/02 19:14:10;;;;;;;2.60;1.80;;;;;;;14.10;66.88;94436.06;106828;1275;137960;-87
2023/11/02 19:16:37;;;;;;;3.80;2.20;;;;;;;14.09;67.09;94449.13;107160;1283;22558;-88
2023/11/02 19:19:06;;;;;;;6.70;3.40;;;;;;;14.08;67.00;94452.92;107275;1276;22589;-88
2023/11/02 19:21:40;;;;;;;3.80;2.00;;;;;;;14.09;67.30;94455.02;107082;1270;137939;-88
2023/11/02 19:24:11;;;;;;;3.70;2.50;;;;;;;14.08;67.39;94449.33;107054;1271;22581;-88
2023/11/02 19:26:44;;;;;;;3.20;1.90;;;;;;;14.09;67.20;94440.61;107036;1276;137587;-87
2023/11/02 19:29:11;;;;;;;4.30;1.80;;;;;;;14.11;67.37;94450.70;107151;1275;24851;-88
2023/11/02 19:31:49;;;;;;;3.70;2.50;;;;;;;14.12;67.52;94448.41;107109;1275;137686;-87
2023/11/02 19:34:16;;;;;;;3.00;1.90;;;;;;;14.12;67.60;94445.44;107319;1275;22655;-88
2023/11/02 19:36:47;;;;;;;3.60;2.00;;;;;;;14.13;67.69;94434.57;107401;1277;22559;-88
2023/11/02 19:39:14;;;;;;;5.30;2.80;;;;;;;14.13;67.80;94433.16;107295;1277;138250;-89
2023/11/02 19:41:43;;;;;;;4.70;3.00;;;;;;;14.11;68.12;94424.69;107653;1277;23329;-88
2023/11/02 19:44:10;;;;;;;9.30;4.70;;;;;;;14.10;68.02;94424.85;107173;1277;137318;-88
2023/11/02 19:46:39;;;;;;;9.60;5.60;;;;;;;14.11;68.18;94421.29;107277;1277;22595;-87
2023/11/02 19:49:06;;;;;;;17.20;7.30;;;;;;;14.11;68.12;94421.98;107189;1278;22552;-87
2023/11/02 19:51:33;;;;;;;10.70;5.40;;;;;;;14.12;68.30;94419.57;107035;1280;137775;-88
2023/11/02 19:54:00;;;;;;;8.20;4.90;;;;;;;14.11;68.52;94409.33;107050;1283;22774;-87
2023/11/02 19:56:27;;;;;;;7.30;5.40;;;;;;;14.11;68.61;94413.30;106803;1277;137905;-88
2023/11/02 19:58:53;;;;;;;6.30;3.50;;;;;;;14.11;68.56;94413.30;107133;1275;24410;-88
2023/11/02 20:01:20;;;;;;;8.90;4.00;;;;;;;14.11;68.72;94415.55;106965;1265;22528;-87
2023/11/02 20:03:46;;;;;;;4.30;3.60;;;;;;;14.09;68.72;94408.85;108051;1277;136959;-89
2023/11/02 20:06:13;;;;;;;7.70;4.30;;;;;;;14.08;68.85;94405.25;107382;1277;23486;-88
2023/11/02 20:08:41;;;;;;;5.40;2.70;;;;;;;14.09;68.55;94407.91;107166;1278;138788;-88
2023/11/02 20:11:08;;;;;;;9.90;5.10;;;;;;;14.10;68.65;94404.31;107041;1277;24227;-88
2023/11/02 20:13:34;;;;;;;6.60;3.70;;;;;;;14.12;68.48;94405.98;107051;1275;138058;-88
2023/11/02 20:16:01;;;;;;;6.50;2.80;;;;;;;14.11;68.53;94405.37;107538;1277;22552;-88
2023/11/02 20:18:28;;;;;;;2.40;1.90;;;;;;;14.10;68.65;94408.45;109820;1268;22372;-86
2023/11/02 20:20:54;;;;;;;3.70;2.60;;;;;;;14.11;68.53;94411.63;108398;1277;137687;-88
2023/11/02 20:23:21;;;;;;;4.90;2.30;;;;;;;14.13;68.44;94416.23;107137;1278;24379;-89
2023/11/02 20:25:51;;;;;;;5.30;3.30;;;;;;;14.15;68.50;94406.05;107031;1279;138122;-88
2023/11/02 20:28:18;;;;;;;4.20;2.70;;;;;;;14.15;68.23;94399.73;107450;1278;22563;-88
2023/11/02 20:30:44;;;;;;;7.80;3.60;;;;;;;14.15;68.50;94402.84;107579;1279;24243;-88
2023/11/02 20:33:13;;;;;;;7.00;3.70;;;;;;;14.16;68.45;94403.58;107231;1277;137182;-89
2023/11/02 20:35:41;;;;;;;4.50;2.20;;;;;;;14.17;68.39;94392.77;107314;1276;22662;-89
2023/11/02 20:38:07;;;;;;;5.80;3.20;;;;;;;14.18;68.38;94392.16;107081;1261;138488;-89
2023/11/02 20:40:34;;;;;;;3.60;2.20;;;;;;;14.18;68.40;94390.74;107096;1281;22626;-87
2023/11/02 20:43:01;;;;;;;4.10;2.80;;;;;;;14.18;68.28;94384.79;107047;1277;22728;-88
2023/11/02 20:45:28;;;;;;;4.40;3.00;;;;;;;14.19;68.34;94389.55;107078;1278;137187;-89
2023/11/02 20:47:54;;;;;;;6.40;2.50;;;;;;;14.19;68.39;94376.54;107019;1275;24389;-89
2023/11/02 20:50:21;;;;;;;4.60;2.80;;;;;;;14.17;68.50;94372.20;106950;1277;137817;-89
2023/11/02 20:52:48;;;;;;;3.90;1.80;;;;;;;14.15;68.62;94371.17;109869;1277;23007;-89
2023/11/02 20:55:15;;;;;;;7.30;3.80;;;;;;;14.15;68.43;94372.90;107840;1276;22914;-90
2023/11/02 20:57:42;;;;;;;9.10;4.40;;;;;;;14.15;68.30;94360.15;107399;1278;136937;-89
2023/11/02 21:00:09;;;;;;;8.00;5.10;;;;;;;14.16;68.45;94346.90;106965;1275;25616;-89
2023/11/02 21:02:36;;;;;;;5.90;3.80;;;;;;;14.16;68.46;94335.92;106938;1275;137819;-89
2023/11/02 21:05:03;;;;;;;2.00;1.70;;;;;;;14.15;68.39;94333.98;107100;1278;22564;-88
2023/11/02 21:07:30;;;;;;;4.90;2.10;;;;;;;14.15;68.29;94323.17;106877;1278;137380;-89
2023/11/02 21:09:57;;;;;;;3.70;2.30;;;;;;;14.14;68.35;94310.73;107092;1275;23169;-89
2023/11/02 21:12:24;;;;;;;5.40;3.00;;;;;;;14.14;68.29;94306.23;107027;1276;22842;-89
2023/11/02 21:14:50;;;;;;;6.40;3.60;;;;;;;14.14;68.30;94305.67;106964;1275;137867;-90
2023/11/02 21:17:17;;;;;;;6.50;3.20;;;;;;;14.13;68.37;94299.08;107079;1275;22605;-88
2023/11/02 21:19:44;;;;;;;4.20;2.00;;;;;;;14.12;68.41;94306.55;106931;1280;137315;-89
2023/11/02 21:22:10;;;;;;;6.10;2.20;;;;;;;14.12;68.42;94287.11;106999;1276;23842;-90
2023/11/02 21:24:38;;;;;;;4.00;2.30;;;;;;;14.11;68.45;94281.58;107012;1275;22574;-88
2023/11/02 21:27:05;;;;;;;2.90;2.20;;;;;;;14.09;68.66;94275.09;106747;1281;137256;-89
2023/11/02 21:29:38;;;;;;;5.80;2.60;;;;;;;14.07;68.72;94271.43;107047;1277;22870;-90
2023/11/02 21:32:06;;;;;;;2.00;1.40;;;;;;;14.06;68.97;94279.95;106938;1278;137391;-89
2023/11/02 21:34:33;;;;;;;2.90;1.60;;;;;;;14.05;68.92;94277.95;106837;1276;25483;-88
2023/11/02 21:36:59;;;;;;;2.30;1.50;;;;;;;14.04;69.09;94273.10;107120;1276;26132;-89
2023/11/02 21:39:26;;;;;;;3.10;1.60;;;;;;;14.02;69.34;94265.58;106909;1277;137278;-89
2023/11/02 21:41:53;;;;;;;3.60;1.60;;;;;;;14.00;69.38;94273.81;107498;1278;25476;-88
2023/11/02 21:44:20;;;;;;;3.60;2.20;;;;;;;13.98;69.45;94272.38;106897;1277;137199;-89
2023/11/02 21:46:47;;;;;;;2.70;1.40;;;;;;;13.97;69.60;94265.52;107018;1277;22576;-88
2023/11/02 21:49:13;;;;;;;2.60;1.40;;;;;;;13.96;69.56;94255.18;106988;1283;23307;-89
2023/11/02 21:51:44;;;;;;;1.80;1.30;;;;;;;13.96;69.14;94253.62;106906;1278;137950;-89
2023/11/02 21:54:10;;;;;;;2.40;1.20;;;;;;;13.99;69.57;94253.38;107013;1276;23370;-88
2023/11/02 21:56:36;;;;;;;2.40;1.10;;;;;;;13.98;69.70;94270.23;106926;1283;137673;-87
2023/11/02 21:59:12;;;;;;;2.30;1.20;;;;;;;13.96;69.80;94280.71;107006;1266;22553;-89
2023/11/02 22:01:38;;;;;;;2.30;1.00;;;;;;;13.94;69.72;94278.05;106833;1276;137363;-88
2023/11/02 22:04:06;;;;;;;2.20;1.10;;;;;;;13.94;69.68;94280.19;107002;1281;22564;-89
2023/11/02 22:06:34;;;;;;;1.90;1.20;;;;;;;13.95;69.75;94279.15;106956;1278;22553;-87
2023/11/02 22:09:00;;;;;;;2.10;1.20;;;;;;;13.94;69.90;94274.39;106845;1277;137202;-88
2023/11/02 22:11:27;;;;;;;4.90;1.90;;;;;;;13.93;69.79;94281.48;107035;1275;25251;-89
2023/11/02 22:13:53;;;;;;;7.10;3.40;;;;;;;13.92;69.71;94282.64;106974;1275;137474;-88
2023/11/02 22:16:21;;;;;;;2.60;1.40;;;;;;;13.93;69.70;94271.25;107297;1280;22708;-89
2023/11/02 22:18:49;;;;;;;4.70;2.40;;;;;;;13.93;69.58;94279.61;107041;1283;24276;-88
2023/11/02 22:21:22;;;;;;;8.30;3.90;;;;;;;13.93;69.80;94271.41;107009;1280;138205;-89
2023/11/02 22:23:49;;;;;;;7.60;3.10;;;;;;;13.93;69.62;94278.57;106983;1277;22544;-89
2023/11/02 22:26:23;;;;;;;7.90;3.00;;;;;;;13.93;69.72;94269.89;106907;1275;137587;-88
2023/11/02 22:28:50;;;;;;;5.30;2.20;;;;;;;13.93;69.54;94277.20;106962;1281;22662;-89
2023/11/02 22:31:17;;;;;;;11.70;4.00;;;;;;;13.92;69.58;94264.57;107060;1278;22608;-89
2023/11/02 22:33:43;;;;;;;6.50;2.40;;;;;;;13.93;69.40;94265.77;106913;1275;137342;-89
2023/11/02 22:36:10;;;;;;;2.00;1.20;;;;;;;13.93;69.53;94227.60;106914;1281;22610;-89
2023/11/02 22:38:37;;;;;;;1.90;1.30;;;;;;;13.92;69.47;94241.49;106945;1275;137263;-89
2023/11/02 22:41:04;;;;;;;1.90;1.00;;;;;;;13.92;69.40;94231.88;107064;1275;24063;-89
2023/11/02 22:43:31;;;;;;;2.00;1.30;;;;;;;13.91;69.49;94238.98;106983;1277;137386;-89
2023/11/02 22:46:07;;;;;;;3.30;1.20;;;;;;;13.91;69.32;94235.27;108911;1277;22573;-88
2023/11/02 22:48:38;;;;;;;2.90;1.20;;;;;;;13.91;69.20;94218.20;107002;1280;138176;-87
2023/11/02 22:51:05;;;;;;;3.10;1.30;;;;;;;13.91;69.23;94209.22;107034;1276;23318;-88
2023/11/02 22:53:34;;;;;;;4.60;1.90;;;;;;;13.91;69.09;94203.33;107023;1275;22550;-88
2023/11/02 22:56:10;;;;;;;4.70;2.00;;;;;;;13.93;69.10;94198.31;107053;1278;22602;-88
2023/11/02 22:58:37;;;;;;;5.00;1.90;;;;;;;13.93;69.14;94188.86;107086;1278;24366;-88
2023/11/02 23:01:04;;;;;;;3.60;1.90;;;;;;;13.93;69.11;94175.39;106903;1275;137203;-89
2023/11/02 23:03:31;;;;;;;3.70;1.90;;;;;;;13.93;68.79;94173.46;107016;1275;25251;-89
2023/11/02 23:05:58;;;;;;;5.10;2.70;;;;;;;13.94;69.03;94166.78;106806;1275;138190;-89
2023/11/02 23:08:27;;;;;;;4.90;1.80;;;;;;;13.95;68.80;94164.90;106967;1278;25407;-88
2023/11/02 23:10:54;;;;;;;3.70;1.30;;;;;;;13.96;68.81;94152.89;107036;1275;24960;-89
2023/11/02 23:13:22;;;;;;;3.60;1.20;;;;;;;13.97;68.34;94149.14;106985;1275;137783;-89
2023/11/02 23:15:49;;;;;;;3.00;1.10;;;;;;;13.98;68.23;94152.64;107119;1275;23323;-89
2023/11/02 23:18:15;;;;;;;3.60;1.40;;;;;;;14.00;68.13;94134.64;106915;1275;137348;-89
2023/11/02 23:20:43;;;;;;;6.00;2.50;;;;;;;14.01;68.30;94131.57;106938;1280;22751;-89
2023/11/02 23:23:12;;;;;;;2.80;1.40;;;;;;;14.01;68.19;94137.52;106976;1283;22567;-88
2023/11/02 23:25:39;;;;;;;1.60;1.10;;;;;;;14.01;68.03;94127.76;106894;1274;137886;-88
2023/11/02 23:28:05;;;;;;;2.80;1.50;;;;;;;14.00;67.92;94131.10;107020;1275;23435;-89
2023/11/02 23:30:32;;;;;;;4.70;2.00;;;;;;;14.02;67.94;94119.40;106976;1275;137202;-87
2023/11/02 23:32:58;;;;;;;2.30;1.40;;;;;;;14.02;68.05;94105.73;106977;1278;22558;-89
2023/11/02 23:35:25;;;;;;;1.70;1.10;;;;;;;14.03;67.89;94091.00;107107;1275;24382;-90
2023/11/02 23:37:52;;;;;;;2.70;1.40;;;;;;;14.03;67.75;94071.83;106925;1279;138309;-89
2023/11/02 23:40:19;;;;;;;8.70;3.70;;;;;;;14.04;67.36;94076.27;106964;1278;25383;-89
2023/11/02 23:42:46;;;;;;;6.80;2.90;;;;;;;14.07;67.05;94081.85;106943;1271;137295;-88
2023/11/02 23:45:13;;;;;;;9.50;4.30;;;;;;;14.10;67.14;94072.61;106871;1280;22568;-88
2023/11/02 23:47:40;;;;;;;4.50;2.40;;;;;;;14.12;67.45;94059.19;106759;1278;138238;-89
2023/11/02 23:50:07;;;;;;;4.10;2.00;;;;;;;14.12;67.23;94057.57;106864;1277;22555;-89
2023/11/02 23:52:34;;;;;;;3.80;2.30;;;;;;;14.13;67.28;94063.57;106932;1278;25750;-88
2023/11/02 23:55:02;;;;;;;2.40;1.50;;;;;;;14.15;67.18;94076.75;106875;1280;137218;-89
2023/11/02 23:57:29;;;;;;;2.30;1.10;;;;;;;14.17;67.43;94064.39;106980;1282;22540;-88
2023/11/02 23:59:56;;;;;;;2.90;1.30;;;;;;;14.17;67.34;94072.31;106763;1277;139287;-87
